Time;durP1;ratioP1;P1;durP2;ratioP2;P2;SDS_P1;SDS_P2;PMS_P1;PMS_P2;Temp;Humidity;BMP_temperature;BMP_pressure;BME280_temperature;BME280_humidity;BME280_pressure;Samples;Min_cycle;Max_cycle;Signal;HPM_P1;HPM_P2
2021/03/02 00:00:15;;;;;;;153.53;34.17;;;-0.30;99.90;;;-3.30;100.00;102293.69;4985899;28;100757;-65
2021/03/02 00:02:44;;;;;;;96.57;29.83;;;-0.20;99.90;;;-3.36;100.00;102292.91;4982810;28;100450;-65
2021/03/02 00:05:13;;;;;;;132.17;33.43;;;-0.10;99.90;;;-3.38;100.00;102300.78;4982382;28;100179;-66
2021/03/02 00:07:41;;;;;;;132.20;31.63;;;-0.30;99.90;;;-3.36;100.00;102306.88;4983245;28;100132;-64
2021/03/02 00:10:10;;;;;;;124.33;32.40;;;-0.20;99.90;;;-3.34;100.00;102305.06;4981638;28;100890;-61
2021/03/02 00:12:39;;;;;;;73.27;26.53;;;-0.20;99.90;;;-3.24;100.00;102295.38;4982262;28;101282;-60
2021/03/02 00:15:09;;;;;;;84.73;30.17;;;-0.20;99.90;;;-3.17;100.00;102301.34;4982255;28;100470;-60
2021/03/02 00:17:37;;;;;;;88.50;29.03;;;-0.30;99.90;;;-3.18;100.00;102303.13;4982572;28;100161;-60
2021/03/02 00:20:08;;;;;;;76.50;28.33;;;-0.30;99.90;;;-3.27;100.00;102295.41;4982015;28;100739;-61
2021/03/02 00:22:47;;;;;;;158.30;34.47;;;-0.20;99.90;;;-3.29;100.00;102287.56;4981738;28;100889;-59
2021/03/02 00:25:15;;;;;;;79.60;29.87;;;-0.30;99.90;;;-3.30;100.00;102291.06;4985024;27;100065;-60
2021/03/02 00:27:42;;;;;;;86.77;29.47;;;-0.20;99.90;;;-3.30;100.00;102291.06;4986048;28;99875;-60
2021/03/02 00:30:10;;;;;;;75.40;28.33;;;-0.40;99.90;;;-3.30;100.00;102295.44;4985750;28;100867;-60
2021/03/02 00:32:38;;;;;;;82.27;28.50;;;-0.30;99.90;;;-3.31;100.00;102298.94;4985715;28;100453;-60
2021/03/02 00:35:07;;;;;;;129.90;30.77;;;-0.30;99.90;;;-3.32;100.00;102300.69;4984809;28;100174;-60
2021/03/02 00:37:34;;;;;;;98.10;29.63;;;-0.30;99.90;;;-143.91;100.00;62816.50;4985873;28;100317;-62
2021/03/02 00:40:00;;;;;;;75.77;27.30;;;-0.30;99.90;;;-143.91;100.00;62816.50;4985263;28;101895;-61
2021/03/02 00:42:26;;;;;;;123.77;29.93;;;-0.30;99.90;;;-143.91;100.00;62816.50;4985624;28;100294;-60
2021/03/02 00:44:56;;;;;;;68.40;27.03;;;0.10;99.90;;;-143.91;100.00;62816.50;4985706;28;100202;-59
2021/03/02 00:47:22;;;;;;;78.33;28.17;;;-0.30;99.90;;;-143.91;100.00;62816.50;4986730;28;100198;-60
2021/03/02 00:49:50;;;;;;;111.10;28.90;;;-0.30;99.90;;;-143.91;100.00;62816.50;4986164;28;101261;-60
2021/03/02 00:52:17;;;;;;;74.93;26.43;;;-0.40;99.90;;;-143.91;100.00;62816.50;5000262;27;102516;-60
2021/03/02 00:54:44;;;;;;;77.30;25.20;;;-0.50;99.90;;;-143.91;100.00;62816.50;4999494;27;100429;-58
2021/03/02 00:57:11;;;;;;;65.90;24.87;;;-0.20;99.90;;;-143.91;100.00;62816.50;4984683;28;100438;-60
2021/03/02 00:59:38;;;;;;;50.80;21.83;;;-0.70;99.90;;;-143.91;100.00;62816.50;4999983;27;102869;-59
2021/03/02 01:02:04;;;;;;;75.87;28.07;;;-0.50;99.90;;;-143.91;100.00;62816.50;4984895;28;101085;-59
2021/03/02 01:04:30;;;;;;;55.40;22.70;;;-0.60;99.90;;;-143.91;100.00;62816.50;4984856;28;100314;-61
2021/03/02 01:06:59;;;;;;;51.73;23.77;;;-0.70;99.90;;;-143.91;100.00;62816.50;4982671;28;100222;-60
2021/03/02 01:09:30;;;;;;;54.80;26.13;;;-0.30;99.90;;;-143.91;100.00;62816.50;4982950;28;102909;-59
2021/03/02 01:11:58;;;;;;;60.43;25.53;;;-0.70;99.90;;;-143.91;100.00;62816.50;4999172;27;102757;-60
2021/03/02 01:14:25;;;;;;;78.07;28.80;;;-0.60;99.90;;;-143.91;100.00;62816.50;4982842;28;100177;-58
2021/03/02 01:16:51;;;;;;;52.83;25.87;;;-0.80;99.90;;;-143.91;100.00;62816.50;4985393;28;100261;-61
2021/03/02 01:19:18;;;;;;;79.67;27.10;;;-0.60;99.90;;;-143.91;100.00;62816.50;4984356;28;101757;-61
2021/03/02 01:21:44;;;;;;;58.27;24.97;;;-1.00;99.90;;;-143.91;100.00;62816.50;4984801;28;100894;-59
2021/03/02 01:24:11;;;;;;;68.07;28.53;;;-1.10;99.90;;;-143.91;100.00;62816.50;4984127;28;100086;-60
2021/03/02 01:26:38;;;;;;;56.50;25.60;;;-0.90;99.90;;;-143.91;100.00;62816.50;4984405;28;100380;-59
2021/03/02 01:29:05;;;;;;;46.40;23.40;;;-1.20;99.90;;;-143.91;100.00;62816.50;4984569;28;101125;-59
2021/03/02 01:31:31;;;;;;;50.70;24.07;;;-1.10;99.90;;;-143.91;100.00;62816.50;4984186;28;100603;-59
2021/03/02 01:33:58;;;;;;;43.33;22.13;;;-1.10;99.90;;;-143.91;100.00;62816.50;4984879;28;100162;-61
2021/03/02 01:36:24;;;;;;;43.17;22.40;;;-0.50;99.90;;;-143.91;100.00;62816.50;4983644;27;100324;-59
2021/03/02 01:38:51;;;;;;;38.27;21.10;;;-1.00;99.90;;;-143.91;100.00;62816.50;4984803;28;100299;-59
2021/03/02 01:41:18;;;;;;;39.17;22.40;;;-1.10;99.90;;;-143.91;100.00;62816.50;4984547;28;100672;-60
2021/03/02 01:43:45;;;;;;;36.40;20.87;;;-1.30;99.90;;;-143.91;100.00;62816.50;4984527;28;100240;-58
2021/03/02 01:46:12;;;;;;;42.67;22.40;;;-1.20;99.90;;;-143.91;100.00;62816.50;4984643;28;100468;-59
2021/03/02 01:48:41;;;;;;;37.50;21.53;;;-1.20;99.90;;;-143.91;100.00;62816.50;4983814;28;101317;-59
2021/03/02 01:51:09;;;;;;;45.27;24.90;;;-1.00;99.90;;;-143.91;100.00;62816.50;4984266;28;100630;-59
2021/03/02 01:53:35;;;;;;;43.47;23.03;;;-1.20;99.90;;;-143.91;100.00;62816.50;4983651;28;100058;-58
2021/03/02 01:56:03;;;;;;;43.87;23.37;;;-1.20;99.90;;;-143.91;100.00;62816.50;4984382;28;100039;-59
2021/03/02 01:58:30;;;;;;;43.80;22.87;;;-1.10;99.90;;;-143.91;100.00;62816.50;4983893;28;100828;-58
2021/03/02 02:01:01;;;;;;;47.37;24.50;;;-1.00;99.90;;;-143.91;100.00;62816.50;4983625;28;101543;-59
2021/03/02 02:03:40;;;;;;;41.07;20.97;;;-1.30;99.90;;;-143.91;100.00;62816.50;4984585;28;100082;-61
2021/03/02 02:06:11;;;;;;;43.97;22.03;;;-1.10;99.90;;;-143.91;100.00;62816.50;4984571;28;100178;-61
2021/03/02 02:08:50;;;;;;;49.47;22.67;;;-1.10;99.90;;;-143.91;100.00;62816.50;4984023;28;100986;-60
2021/03/02 02:11:29;;;;;;;47.47;22.00;;;-1.00;99.90;;;-143.91;100.00;62816.50;4983550;28;101345;-60
2021/03/02 02:14:07;;;;;;;38.77;22.00;;;-0.50;99.90;;;-143.91;100.00;62816.50;4983659;28;100209;-60
2021/03/02 02:16:38;;;;;;;49.57;21.77;;;-1.10;99.90;;;-143.91;100.00;62816.50;4985112;28;100236;-60
2021/03/02 02:19:21;;;;;;;44.63;20.80;;;-0.40;99.90;;;-143.91;100.00;62816.50;4983981;28;100752;-60
2021/03/02 02:22:04;;;;;;;83.90;22.30;;;0.10;99.90;;;-143.91;100.00;62816.50;4983341;28;101659;-59
2021/03/02 02:24:48;;;;;;;52.40;19.83;;;-0.90;99.90;;;-143.91;100.00;62816.50;4983829;28;100184;-59
2021/03/02 02:27:16;;;;;;;78.70;21.60;;;-0.80;99.90;;;-143.91;100.00;62816.50;4983711;28;100273;-60
2021/03/02 02:29:43;;;;;;;53.43;20.73;;;-0.40;99.90;;;-143.91;100.00;62816.50;4984109;28;100608;-61
2021/03/02 02:32:11;;;;;;;72.63;22.83;;;-1.00;99.90;;;-143.91;100.00;62816.50;4984284;28;100894;-59
2021/03/02 02:34:39;;;;;;;122.37;24.07;;;-1.00;99.90;;;-143.91;100.00;62816.50;4983755;28;100249;-61
2021/03/02 02:37:07;;;;;;;142.23;24.63;;;0.00;99.90;;;-143.91;100.00;62816.50;4983641;28;100218;-60
2021/03/02 02:39:36;;;;;;;98.73;22.13;;;-1.00;99.90;;;-143.91;100.00;62816.50;4983245;28;101404;-60
2021/03/02 02:42:04;;;;;;;101.67;24.63;;;-1.10;99.90;;;-143.91;100.00;62816.50;4983618;28;101206;-60
2021/03/02 02:44:32;;;;;;;112.30;24.80;;;-1.00;99.90;;;-143.91;100.00;62816.50;4983883;28;100472;-60
2021/03/02 02:46:59;;;;;;;167.47;26.67;;;-0.80;99.90;;;-143.91;100.00;62816.50;4982638;27;100102;-61
2021/03/02 02:49:27;;;;;;;128.90;25.17;;;-1.80;99.90;;;-143.91;100.00;62816.50;4982552;28;101082;-61
2021/03/02 02:51:54;;;;;;;69.17;22.23;;;-0.90;99.90;;;-143.91;100.00;62816.50;4982632;28;100995;-61
2021/03/02 02:54:22;;;;;;;107.30;24.27;;;-0.60;99.90;;;-143.91;100.00;62816.50;4981934;28;100409;-60
2021/03/02 02:56:49;;;;;;;71.00;22.50;;;-0.10;99.90;;;-143.91;100.00;62816.50;4983725;28;100114;-61
2021/03/02 02:59:21;;;;;;;84.07;21.33;;;-0.70;99.90;;;-143.91;100.00;62816.50;4983508;28;100299;-61
2021/03/02 03:01:53;;;;;;;77.70;23.57;;;-0.80;99.90;;;-143.91;100.00;62816.50;4982926;28;100396;-61
2021/03/02 03:04:24;;;;;;;50.87;21.13;;;-0.80;99.90;;;-143.91;100.00;62816.50;4982544;28;100102;-61
2021/03/02 03:06:53;;;;;;;47.23;22.07;;;-0.70;99.90;;;-143.91;100.00;62816.50;4997528;27;100155;-60
2021/03/02 03:09:22;;;;;;;63.90;22.47;;;-0.60;99.90;;;-143.91;100.00;62816.50;4982712;28;101747;-62
2021/03/02 03:11:54;;;;;;;813.77;115.30;;;-0.60;99.90;;;-143.91;100.00;62816.50;4983039;28;100340;-61
2021/03/02 03:14:25;;;;;;;38.77;18.70;;;-0.70;99.90;;;-143.91;100.00;62816.50;4983351;28;100125;-59
2021/03/02 03:16:53;;;;;;;43.30;21.07;;;-0.70;99.90;;;-143.91;100.00;62816.50;4983025;28;100128;-60
2021/03/02 03:19:24;;;;;;;59.53;21.80;;;-0.80;99.90;;;-143.91;100.00;62816.50;4983169;28;101409;-59
2021/03/02 03:21:52;;;;;;;47.53;20.97;;;-0.70;99.90;;;-143.91;100.00;62816.50;4982519;28;101037;-59
2021/03/02 03:24:19;;;;;;;78.37;22.17;;;-0.70;99.90;;;-143.91;100.00;62816.50;4982712;28;100093;-59
2021/03/02 03:26:47;;;;;;;57.80;21.63;;;-0.80;99.90;;;-143.91;100.00;62816.50;4982588;28;100227;-58
2021/03/02 03:29:16;;;;;;;44.37;19.30;;;-0.70;99.90;;;-143.91;100.00;62816.50;4982288;28;101006;-60
2021/03/02 03:31:45;;;;;;;40.40;20.93;;;0.10;99.90;;;-143.91;100.00;62816.50;4966964;28;100658;-59
2021/03/02 03:34:13;;;;;;;52.30;20.70;;;-0.80;99.90;;;-143.91;100.00;62816.50;4962991;28;100223;-60
2021/03/02 03:36:40;;;;;;;69.43;20.10;;;-0.80;99.90;;;-143.91;100.00;62816.50;4962953;28;100554;-58
2021/03/02 03:39:07;;;;;;;84.50;22.17;;;-0.80;99.90;;;-143.91;100.00;62816.50;4963821;28;101584;-59
2021/03/02 03:41:34;;;;;;;82.93;21.47;;;-0.40;99.90;;;-143.91;100.00;62816.50;4964781;28;100361;-61
2021/03/02 03:44:01;;;;;;;57.53;19.57;;;-0.70;99.90;;;-143.91;100.00;62816.50;4980610;28;100259;-59
2021/03/02 03:46:27;;;;;;;69.20;20.20;;;-1.00;99.90;;;-143.91;100.00;62816.50;4983084;28;100434;-59
2021/03/02 03:48:54;;;;;;;54.00;21.53;;;-0.80;99.90;;;-143.91;100.00;62816.50;4982664;28;101791;-59
2021/03/02 03:51:24;;;;;;;45.87;19.57;;;-0.80;99.90;;;-143.91;100.00;62816.50;4984646;28;100598;-58
2021/03/02 03:53:51;;;;;;;51.70;21.83;;;-1.10;99.90;;;-143.91;100.00;62816.50;4983643;28;100309;-59
2021/03/02 03:56:19;;;;;;;81.67;21.90;;;-0.60;99.90;;;-143.91;100.00;62816.50;4981916;28;100256;-59
2021/03/02 03:58:47;;;;;;;48.90;21.43;;;-0.20;99.90;;;-143.91;100.00;62816.50;4983410;27;101277;-60
2021/03/02 04:01:14;;;;;;;897.63;117.90;;;-1.10;99.90;;;-143.91;100.00;62816.50;4986020;28;100730;-59
2021/03/02 04:03:41;;;;;;;63.53;20.60;;;-1.10;99.90;;;-143.91;100.00;62816.50;4986110;28;100436;-60
2021/03/02 04:06:08;;;;;;;133.23;29.27;;;-0.80;99.90;;;-143.91;100.00;62816.50;4985622;28;100171;-59
2021/03/02 04:08:35;;;;;;;64.83;21.90;;;-1.10;99.90;;;-143.91;100.00;62816.50;4985464;28;101049;-59
2021/03/02 04:11:04;;;;;;;64.63;21.13;;;-0.40;99.90;;;-143.91;100.00;62816.50;4986122;28;100655;-61
2021/03/02 04:13:30;;;;;;;86.70;22.97;;;-1.10;99.90;;;-143.91;100.00;62816.50;4986446;28;100218;-59
2021/03/02 04:15:59;;;;;;;87.37;23.20;;;-1.10;99.90;;;-143.91;100.00;62816.50;4985916;28;100326;-59
2021/03/02 04:18:26;;;;;;;460.03;57.57;;;-0.40;99.90;;;-143.91;100.00;62816.50;4984674;28;101295;-59
2021/03/02 04:20:53;;;;;;;55.17;21.57;;;-1.20;99.90;;;-143.91;100.00;62816.50;4985692;28;101226;-59
2021/03/02 04:23:21;;;;;;;43.87;20.50;;;-0.30;99.90;;;-143.91;100.00;62816.50;4986058;28;100167;-60
2021/03/02 04:25:48;;;;;;;128.40;25.70;;;-0.40;99.90;;;-143.91;100.00;62816.50;4986302;28;100051;-60
2021/03/02 04:28:14;;;;;;;44.30;19.10;;;-1.30;99.90;;;-143.91;100.00;62816.50;4984859;28;100951;-60
2021/03/02 04:30:41;;;;;;;46.67;20.43;;;-1.20;99.90;;;-143.91;100.00;62816.50;4985250;28;100462;-58
2021/03/02 04:33:07;;;;;;;29.90;18.13;;;-1.20;99.90;;;-143.91;100.00;62816.50;4985162;28;100205;-61
2021/03/02 04:35:34;;;;;;;39.27;18.87;;;-1.20;99.90;;;-143.91;100.00;62816.50;4985870;28;100281;-59
2021/03/02 04:38:01;;;;;;;37.37;18.60;;;-1.10;99.90;;;-143.91;100.00;62816.50;4985222;28;100700;-59
2021/03/02 04:40:28;;;;;;;52.83;19.90;;;-1.20;99.90;;;-143.91;100.00;62816.50;4984764;28;101041;-61
2021/03/02 04:42:55;;;;;;;61.73;22.83;;;-1.10;99.90;;;-143.91;100.00;62816.50;4984923;28;100126;-60
2021/03/02 04:45:21;;;;;;;47.17;19.60;;;-1.90;99.90;;;-143.91;100.00;62816.50;4984657;28;100212;-59
2021/03/02 04:47:48;;;;;;;55.27;19.80;;;-1.00;99.90;;;-143.91;100.00;62816.50;4985030;28;100823;-59
2021/03/02 04:50:16;;;;;;;52.23;21.17;;;-1.20;99.90;;;-143.91;100.00;62816.50;4984248;28;101265;-60
2021/03/02 04:52:43;;;;;;;38.43;18.37;;;-1.10;99.90;;;-143.91;100.00;62816.50;4984866;28;100306;-59
2021/03/02 04:55:11;;;;;;;491.13;63.63;;;-0.60;99.90;;;-143.91;100.00;62816.50;4984586;28;100349;-58
2021/03/02 04:57:38;;;;;;;39.53;18.10;;;-1.00;99.90;;;-143.91;100.00;62816.50;4985105;28;101309;-58
2021/03/02 05:00:08;;;;;;;36.73;18.80;;;-0.80;99.90;;;-143.91;100.00;62816.50;4985442;28;100932;-59
2021/03/02 05:02:34;;;;;;;38.63;16.70;;;-1.00;99.90;;;-143.91;100.00;62816.50;4984605;28;100271;-58
2021/03/02 05:05:01;;;;;;;83.03;20.53;;;-0.10;99.90;;;-143.91;100.00;62816.50;4984823;28;100137;-59
2021/03/02 05:07:27;;;;;;;287.07;37.43;;;-1.20;99.90;;;-143.91;100.00;62816.50;4982142;28;101536;-61
2021/03/02 05:09:54;;;;;;;1159.90;137.03;;;-1.10;99.90;;;-143.91;100.00;62816.50;4982282;27;102690;-58
2021/03/02 05:12:20;;;;;;;66.33;19.77;;;-1.00;99.90;;;-143.91;100.00;62816.50;4984408;28;100220;-59
2021/03/02 05:14:47;;;;;;;72.17;20.47;;;-1.20;99.90;;;-143.91;100.00;62816.50;4985189;28;100233;-60
2021/03/02 05:17:14;;;;;;;68.17;20.63;;;-1.30;99.90;;;-143.91;100.00;62816.50;4984644;28;100983;-61
2021/03/02 05:19:40;;;;;;;46.80;18.57;;;-1.40;99.90;;;-143.91;100.00;62816.50;4985099;28;100508;-61
2021/03/02 05:22:07;;;;;;;43.93;18.03;;;-1.80;99.90;;;-143.91;100.00;62816.50;4985515;28;100162;-58
2021/03/02 05:24:33;;;;;;;163.93;30.53;;;-1.20;99.90;;;-143.91;100.00;62816.50;4966360;28;100449;-60
2021/03/02 05:27:00;;;;;;;48.63;18.33;;;-1.30;99.90;;;-143.91;100.00;62816.50;4984854;28;100781;-59
2021/03/02 05:29:26;;;;;;;58.03;19.60;;;-0.20;99.90;;;-143.91;100.00;62816.50;4985410;28;100412;-60
2021/03/02 05:31:53;;;;;;;43.67;18.00;;;-0.80;99.90;;;-143.91;100.00;62816.50;4982417;28;100504;-59
2021/03/02 05:34:20;;;;;;;49.73;19.40;;;-1.10;99.90;;;-143.91;100.00;62816.50;4985164;28;100001;-59
2021/03/02 05:36:47;;;;;;;37.20;17.80;;;0.30;99.90;;;-143.91;100.00;62816.50;4984900;28;101611;-59
2021/03/02 05:39:13;;;;;;;38.87;19.00;;;-1.00;99.90;;;-143.91;100.00;62816.50;4984483;28;100815;-59
2021/03/02 05:41:42;;;;;;;41.67;19.80;;;-1.30;99.90;;;-143.91;100.00;62816.50;4983562;28;100333;-60
2021/03/02 05:44:11;;;;;;;32.00;17.90;;;-1.30;99.90;;;-143.91;100.00;62816.50;4983965;28;100318;-59
2021/03/02 05:46:40;;;;;;;74.07;21.33;;;-1.10;99.90;;;-143.91;100.00;62816.50;4982079;28;101549;-58
2021/03/02 05:49:09;;;;;;;39.33;18.20;;;-1.10;99.90;;;-143.91;100.00;62816.50;4984441;28;100681;-60
2021/03/02 05:51:38;;;;;;;46.83;17.80;;;-1.20;99.90;;;-143.91;100.00;62816.50;4963693;28;100243;-59
2021/03/02 05:54:06;;;;;;;71.20;17.70;;;-1.10;99.90;;;-143.91;100.00;62816.50;4964711;28;100351;-59
2021/03/02 05:56:33;;;;;;;39.37;16.03;;;-1.10;99.90;;;-143.91;100.00;62816.50;4963474;28;101531;-58
2021/03/02 05:58:59;;;;;;;148.93;23.47;;;-1.10;99.90;;;-143.91;100.00;62816.50;4978441;28;101618;-59
2021/03/02 06:01:26;;;;;;;75.23;17.03;;;-1.10;99.90;;;-143.91;100.00;62816.50;4963769;28;100225;-59
2021/03/02 06:03:52;;;;;;;60.60;16.93;;;-1.20;99.90;;;-143.91;100.00;62816.50;4971465;28;100075;-59
2021/03/02 06:06:19;;;;;;;31.20;16.10;;;-0.70;99.90;;;-143.91;100.00;62816.50;4983824;28;101882;-60
2021/03/02 06:08:46;;;;;;;37.33;16.07;;;-0.10;99.90;;;-143.91;100.00;62816.50;4983990;28;100741;-59
2021/03/02 06:11:30;;;;;;;35.33;16.67;;;-1.00;99.90;;;-143.91;100.00;62816.50;4983805;28;100267;-59
2021/03/02 06:14:17;;;;;;;63.93;17.07;;;-0.90;99.90;;;-143.91;100.00;62816.50;4984530;28;100201;-59
2021/03/02 06:16:46;;;;;;;56.83;18.83;;;-0.80;99.90;;;-143.91;100.00;62816.50;4984436;28;101529;-59
2021/03/02 06:19:13;;;;;;;48.70;14.93;;;-0.30;99.90;;;-143.91;100.00;62816.50;4983296;28;101225;-59
2021/03/02 06:21:41;;;;;;;44.63;16.63;;;-0.90;99.90;;;-143.91;100.00;62816.50;4982520;28;100361;-58
2021/03/02 06:24:09;;;;;;;43.20;15.60;;;-0.70;99.90;;;-143.91;100.00;62816.50;4983408;28;100431;-59
2021/03/02 06:26:38;;;;;;;42.03;15.83;;;-0.70;99.90;;;-143.91;100.00;62816.50;4983296;28;101247;-59
2021/03/02 06:29:13;;;;;;;33.70;14.27;;;-2.10;99.90;;;-143.91;100.00;62816.50;4983412;28;100416;-59
2021/03/02 06:31:41;;;;;;;46.53;15.07;;;-0.60;99.90;;;-143.91;100.00;62816.50;4983286;28;100223;-59
2021/03/02 06:34:13;;;;;;;28.07;13.50;;;0.10;99.90;;;-143.91;100.00;62816.50;4983203;28;100283;-61
2021/03/02 06:36:42;;;;;;;40.73;16.90;;;-0.70;99.90;;;-143.91;100.00;62816.50;4983327;28;101342;-59
2021/03/02 06:39:25;;;;;;;76.43;18.17;;;-0.70;99.90;;;-143.91;100.00;62816.50;4983903;28;100611;-60
2021/03/02 06:41:56;;;;;;;41.97;14.57;;;-0.10;99.90;;;-143.91;100.00;62816.50;4983086;28;100212;-60
2021/03/02 06:44:31;;;;;;;107.83;20.27;;;-0.70;99.90;;;-143.91;100.00;62816.50;4983010;28;100489;-60
2021/03/02 06:46:57;;;;;;;76.60;17.83;;;-0.60;99.90;;;-143.91;100.00;62816.50;4982391;28;101055;-58
2021/03/02 06:49:38;;;;;;;27.50;12.97;;;0.40;99.90;;;-143.91;100.00;62816.50;4982722;28;101610;-60
2021/03/02 06:52:18;;;;;;;23.50;15.07;;;-0.50;99.90;;;-143.91;100.00;62816.50;4982896;28;100189;-59
2021/03/02 06:54:48;;;;;;;33.73;16.23;;;-0.60;99.90;;;-143.91;100.00;62816.50;4983024;28;100248;-60
2021/03/02 06:57:21;;;;;;;49.93;15.57;;;-0.60;99.90;;;-143.91;100.00;62816.50;4982772;28;101566;-59
2021/03/02 06:59:55;;;;;;;81.53;18.93;;;-0.10;99.90;;;-143.91;100.00;62816.50;4983212;28;100355;-59
2021/03/02 07:02:38;;;;;;;46.57;15.63;;;-0.50;99.90;;;-143.91;100.00;62816.50;4982497;28;100218;-60
2021/03/02 07:05:11;;;;;;;30.40;12.43;;;-0.60;99.90;;;-143.91;100.00;62816.50;4983776;28;100388;-57
2021/03/02 07:07:38;;;;;;;29.77;14.30;;;-0.50;99.90;;;-143.91;100.00;62816.50;4983235;28;100628;-59
2021/03/02 07:10:08;;;;;;;29.53;14.77;;;-1.00;99.90;;;-143.91;100.00;62816.50;4983211;28;101084;-59
2021/03/02 07:12:37;;;;;;;34.43;14.57;;;-0.50;99.90;;;-143.91;100.00;62816.50;4982740;28;100191;-60
2021/03/02 07:15:06;;;;;;;39.50;14.83;;;-0.30;99.90;;;-143.91;100.00;62816.50;4983056;28;100211;-59
2021/03/02 07:17:37;;;;;;;67.97;16.93;;;-0.40;99.90;;;-143.91;100.00;62816.50;4983066;28;101018;-59
2021/03/02 07:20:06;;;;;;;38.17;14.50;;;-0.20;99.90;;;-143.91;100.00;62816.50;4984775;28;101447;-61
2021/03/02 07:22:35;;;;;;;45.90;15.57;;;-0.20;99.90;;;-143.91;100.00;62816.50;4983601;28;100277;-59
2021/03/02 07:25:08;;;;;;;25.87;12.17;;;-0.20;99.90;;;-143.91;100.00;62816.50;4982351;28;100447;-58
2021/03/02 07:27:37;;;;;;;26.03;14.47;;;-0.20;99.90;;;-143.91;100.00;62816.50;4982408;28;100934;-59
2021/03/02 07:30:06;;;;;;;42.80;15.87;;;0.00;99.90;;;-143.91;100.00;62816.50;4983060;28;101510;-60
2021/03/02 07:32:34;;;;;;;53.33;15.73;;;0.10;99.90;;;-143.91;100.00;62816.50;4982378;28;100207;-59
2021/03/02 07:35:01;;;;;;;24.97;14.57;;;0.10;99.90;;;-143.91;100.00;62816.50;4981949;27;100003;-59
2021/03/02 07:37:27;;;;;;;52.00;16.70;;;0.00;99.90;;;-143.91;100.00;62816.50;4981581;28;101858;-61
2021/03/02 07:40:07;;;;;;;73.10;17.10;;;0.00;99.90;;;-143.91;100.00;62816.50;4982345;28;101103;-60
2021/03/02 07:42:33;;;;;;;50.13;16.60;;;0.10;99.90;;;-143.91;100.00;62816.50;4982461;28;100248;-59
2021/03/02 07:45:12;;;;;;;54.50;17.83;;;0.20;99.90;;;-143.91;100.00;62816.50;4982528;28;100365;-58
2021/03/02 07:47:43;;;;;;;34.00;15.33;;;0.80;99.90;;;-143.91;100.00;62816.50;4982149;28;101575;-60
2021/03/02 07:50:19;;;;;;;35.47;16.00;;;0.20;99.90;;;-143.91;100.00;62816.50;4982775;28;100770;-58
2021/03/02 07:52:45;;;;;;;28.23;15.07;;;0.20;99.90;;;-143.91;100.00;62816.50;4981856;28;100194;-59
2021/03/02 07:55:24;;;;;;;40.97;16.23;;;0.20;99.90;;;-143.91;100.00;62816.50;4982534;28;100545;-56
2021/03/02 07:58:14;;;;;;;47.00;16.47;;;0.50;99.90;;;-143.91;100.00;62816.50;4996768;27;101868;-59
2021/03/02 08:00:41;;;;;;;25.47;15.73;;;0.40;99.90;;;-143.91;100.00;62816.50;4982158;28;101752;-59
2021/03/02 08:03:30;;;;;;;25.60;16.83;;;0.70;99.90;;;-143.91;100.00;62816.50;4982402;28;99977;-59
2021/03/02 08:05:59;;;;;;;29.83;16.80;;;0.80;99.90;;;-143.91;100.00;62816.50;4969719;28;100360;-59
2021/03/02 08:08:33;;;;;;;27.13;17.50;;;0.80;99.90;;;-143.91;100.00;62816.50;4963338;28;101290;-59
2021/03/02 08:11:23;;;;;;;31.67;17.30;;;0.90;99.90;;;-143.91;100.00;62816.50;4980312;28;100581;-59
2021/03/02 08:13:50;;;;;;;36.03;17.10;;;1.10;99.90;;;-143.91;100.00;62816.50;4982465;28;100106;-60
2021/03/02 08:16:54;;;;;;;23.30;15.47;;;1.30;99.90;;;-143.91;100.00;62816.50;4982161;28;100237;-59
2021/03/02 08:19:39;;;;;;;37.93;16.33;;;1.40;99.90;;;-143.91;100.00;62816.50;4982651;28;101719;-59
2021/03/02 08:22:58;;;;;;;24.17;15.33;;;1.60;99.90;;;-143.91;100.00;62816.50;4982681;28;100065;-59
2021/03/02 08:25:30;;;;;;;23.60;14.90;;;1.70;99.90;;;-143.91;100.00;62816.50;4982554;28;100065;-60
2021/03/02 08:28:04;;;;;;;66.00;20.23;;;1.80;99.90;;;-143.91;100.00;62816.50;4981690;28;100423;-60
2021/03/02 08:30:36;;;;;;;37.73;16.80;;;1.80;99.90;;;-143.91;100.00;62816.50;4981851;28;100309;-59
2021/03/02 08:33:07;;;;;;;21.20;13.90;;;2.00;99.90;;;-143.91;100.00;62816.50;4984239;28;98549;-59
2021/03/02 08:35:37;;;;;;;59.77;18.97;;;2.10;99.90;;;-143.91;100.00;62816.50;4982147;28;100295;-61
2021/03/02 08:38:06;;;;;;;29.27;14.83;;;2.10;99.90;;;-143.91;100.00;62816.50;4981891;28;100334;-60
2021/03/02 08:40:43;;;;;;;54.47;18.40;;;2.30;99.90;;;-143.91;100.00;62816.50;4981496;28;101027;-60
2021/03/02 08:43:13;;;;;;;25.00;16.03;;;2.20;99.90;;;-143.91;100.00;62816.50;4981399;28;101743;-59
2021/03/02 08:45:43;;;;;;;22.17;15.70;;;2.40;99.90;;;-143.91;100.00;62816.50;4983741;27;100295;-60
2021/03/02 08:48:24;;;;;;;28.80;16.43;;;2.40;99.90;;;-143.91;100.00;62816.50;4985992;28;99951;-60
2021/03/02 08:50:54;;;;;;;35.20;15.77;;;2.50;99.90;;;-143.91;100.00;62816.50;4966023;28;103267;-60
2021/03/02 08:53:37;;;;;;;25.23;15.03;;;2.60;99.90;;;-143.91;100.00;62816.50;4985628;28;100975;-59
2021/03/02 08:56:06;;;;;;;23.83;15.87;;;2.60;99.90;;;-143.91;100.00;62816.50;4984841;28;100186;-59
2021/03/02 08:58:37;;;;;;;23.57;15.33;;;2.80;99.90;;;-143.91;100.00;62816.50;4985182;28;100322;-59
2021/03/02 09:01:08;;;;;;;22.60;15.60;;;3.00;99.90;;;-143.91;100.00;62816.50;4984840;28;100907;-60
2021/03/02 09:03:36;;;;;;;23.63;14.47;;;3.00;99.90;;;-143.91;100.00;62816.50;4984721;28;100864;-61
2021/03/02 09:06:19;;;;;;;21.20;14.80;;;3.10;99.90;;;-143.91;100.00;62816.50;4984819;28;100342;-60
2021/03/02 09:08:56;;;;;;;46.57;16.67;;;3.40;99.90;;;-143.91;100.00;62816.50;4985202;28;100209;-61
2021/03/02 09:11:26;;;;;;;21.43;15.40;;;3.50;99.90;;;-143.91;100.00;62816.50;4985154;28;101981;-60
2021/03/02 09:13:55;;;;;;;26.20;15.97;;;3.60;99.90;;;-143.91;100.00;62816.50;4984702;28;101624;-60
2021/03/02 09:16:24;;;;;;;30.60;18.57;;;3.70;99.90;;;-143.91;100.00;62816.50;4984885;28;100488;-61
2021/03/02 09:19:18;;;;;;;29.63;19.47;;;3.70;99.90;;;-143.91;100.00;62816.50;4999632;27;100301;-62
2021/03/02 09:21:52;;;;;;;25.20;17.97;;;4.40;99.90;;;-143.91;100.00;62816.50;4983804;28;100884;-60
2021/03/02 09:24:22;;;;;;;27.87;17.80;;;4.00;99.90;;;-143.91;100.00;62816.50;4984676;28;100607;-60
2021/03/02 09:26:56;;;;;;;30.73;17.53;;;4.30;99.90;;;-143.91;100.00;62816.50;4984705;28;100391;-61
2021/03/02 09:29:26;;;;;;;27.60;20.47;;;4.30;99.90;;;-143.91;100.00;62816.50;4984622;28;100155;-60
2021/03/02 09:31:56;;;;;;;94.60;63.00;;;4.30;99.90;;;-143.91;100.00;62816.50;4984300;28;101105;-61
2021/03/02 09:34:30;;;;;;;44.60;34.23;;;4.40;99.90;;;-143.91;100.00;62816.50;4984184;28;101325;-61
2021/03/02 09:37:05;;;;;;;31.70;23.30;;;4.50;99.90;;;-143.91;100.00;62816.50;4984654;28;100328;-61
2021/03/02 09:39:33;;;;;;;25.47;18.53;;;4.60;99.90;;;-143.91;100.00;62816.50;4985128;28;100117;-59
2021/03/02 09:42:00;;;;;;;27.80;18.70;;;4.80;99.90;;;-143.91;100.00;62816.50;4984241;28;101687;-61
2021/03/02 09:44:33;;;;;;;26.37;18.20;;;5.10;99.90;;;-143.91;100.00;62816.50;4983998;28;101602;-61
2021/03/02 09:47:03;;;;;;;24.83;19.13;;;5.40;99.90;;;-143.91;100.00;62816.50;4983801;28;100625;-62
2021/03/02 09:49:36;;;;;;;27.43;20.47;;;5.40;99.90;;;-143.91;100.00;62816.50;4984668;28;100243;-62
2021/03/02 09:52:04;;;;;;;29.37;19.23;;;5.80;99.90;;;-143.91;100.00;62816.50;4998425;27;101619;-60
2021/03/02 09:54:30;;;;;;;24.03;19.20;;;6.20;99.90;;;-143.91;100.00;62816.50;4983888;28;101265;-61